Flight Track Log - Related Links

Times and Time Zones

All times are in EDT time to prevent confusion due to time zone crossing. See the AAL1714 flight status page for this flight to view local times or setup timezone preferences in your user account.

Time Position Orientation Groundspeed Altitude Reporting Facility
EDT Latitude Longitude Course Direction KTS MPH feet Rate Location/Type
Tue 06:47:38 PM 33.9342 -118.4539 59° Northeast 177 204 1,700  Level Los Angeles Center
Tue 06:48:40 PM 33.9097 -118.5392 251° West 252 290 3,600 2,226 Climbing Los Angeles Center
Tue 06:49:00 PM 34.0870 -118.1494 54° Northeast  Level FlightAware Approximate
Tue 06:49:42 PM 33.8500 -118.5711 204° Southwest 268 308 6,300  Level Los Angeles Center
Tue 06:50:00 PM 34.1429 -118.0476 59° Northeast  Level FlightAware Approximate
Tue 06:50:45 PM 33.8369 -118.4897 101° East 278 320 9,200  Level Los Angeles Center
Tue 06:51:00 PM 34.1952 -117.9429 59° Northeast  Level FlightAware Approximate
Tue 06:51:47 PM 33.9058 -118.4478 27° Northeast 300 345 11,000  Level Los Angeles Center
Tue 06:52:00 PM 34.2556 -117.8554 59° Northeast  Level FlightAware Approximate
Tue 06:52:49 PM 33.9711 -118.3650 46° Northeast 343 395 14,000  Level Los Angeles Center
Tue 06:53:51 PM 34.0150 -118.2889 55° Northeast 343 395 16,500 2,661 Climbing Los Angeles Center
Tue 06:54:53 PM 34.0831 -118.1669 56° Northeast 363 418 19,500 2,903 Climbing Los Angeles Center
Tue 06:55:55 PM 34.1583 -118.0350 55° Northeast 395 455 22,500 2,613 Climbing Los Angeles Center
Tue 06:56:57 PM 34.2228 -117.9217 55° Northeast 407 468 24,900 1,984 Climbing Los Angeles Center
Tue 06:57:59 PM 34.2883 -117.8042 56° Northeast 419 482 26,600 1,016 Climbing Los Angeles Center
Tue 06:59:01 PM 34.3569 -117.6822 56° Northeast 434 499 27,000 175 Climbing Los Angeles Center
Tue 07:00:16 PM 34.4286 -117.5511 56° Northeast 441 507 27,000  Level Los Angeles Center
Tue 07:01:18 PM 34.5131 -117.3981 56° Northeast 456 525 27,000  Level Los Angeles Center
Tue 07:02:20 PM 34.5844 -117.2681 56° Northeast 466 536 27,000  Level Los Angeles Center
Tue 07:03:22 PM 34.6694 -117.1139 56° Northeast 464 534 27,000  Level Los Angeles Center
Tue 07:04:25 PM 34.7403 -116.9842 56° Northeast 464 534 27,000  Level Los Angeles Center
Tue 07:05:27 PM 34.8103 -116.8542 57° Northeast 462 532 27,000  Level Los Angeles Center
Tue 07:06:29 PM 34.8822 -116.7239 56° Northeast 466 536 27,000 -48 Level Los Angeles Center
Tue 07:07:31 PM 34.9536 -116.5914 57° Northeast 469 540 26,900 -871 Descending Los Angeles Center
Tue 07:08:33 PM 35.0558 -116.4592 47° Northeast 444 511 25,200 -1,403 Descending Los Angeles Center
Tue 07:09:35 PM 35.1394 -116.3556 45° Northeast 434 499 24,000 -1,500 Descending Los Angeles Center
Tue 07:10:37 PM 35.2189 -116.2542 46° Northeast 421 484 22,100 -1,839 Descending Los Angeles Center
Tue 07:11:39 PM 35.2986 -116.1547 45° Northeast 411 473 20,200 -1,548 Descending Los Angeles Center
Tue 07:12:41 PM 35.3703 -116.0636 46° Northeast 374 430 18,900 -1,321 Descending Los Angeles Center
Tue 07:13:28 PM 35.4233 -115.9981 45° Northeast 354 407 17,800 -1,524 Descending Los Angeles Center
Tue 07:13:44 PM 35.4481 -115.9617 50° Northeast 348 400 17,300 -1,343 Descending Los Angeles Center
Tue 07:14:35 PM 35.5003 -115.9028 43° Northeast 333 383 16,300 -1,169 Descending Los Angeles Center
Tue 07:15:42 PM 35.5683 -115.8178 45° Northeast 304 350 15,000 -1,125 Descending Los Angeles Center
Tue 07:16:43 PM 35.6219 -115.7450 48° Northeast 291 335 13,900 -969 Descending Los Angeles Center
Tue 07:17:52 PM 35.6644 -115.6650 57° Northeast 278 320 12,900 -1,034 Descending Los Angeles Center
Tue 07:18:39 PM 35.6669 -115.5828 88° East 270 311 11,900 -1,065 Descending Los Angeles Center
Tue 07:18:54 PM 35.6703 -115.5733 67° East 266 306 11,800 -1,247 Descending Los Angeles Center
Tue 07:19:56 PM 35.7064 -115.4828 64° Northeast 253 291 10,300 -1,210 Descending Los Angeles Center
Tue 07:20:58 PM 35.7458 -115.4108 56° Northeast 251 289 9,300 -919 Descending Los Angeles Center
Tue 07:21:47 PM 35.7783 -115.3481 57° Northeast 248 285 8,600 -982 Descending Los Angeles Center
Tue 07:22:48 PM 35.8358 -115.3056 31° Northeast 233 268 7,500 -1,082 Descending Los Angeles Center

Login

Don't have an account? Register now (free) for customized features, flight alerts, and more!